sensor_id;sensor_type;location;lat;lon;timestamp;P1;durP1;ratioP1;P2;durP2;ratioP2
46198;SDS011;31928;52.104;10.030;2022-11-27T00:01:21;9.60;;;8.55;;
46198;SDS011;31928;52.104;10.030;2022-11-27T00:03:50;9.70;;;8.73;;
46198;SDS011;31928;52.104;10.030;2022-11-27T00:06:18;8.95;;;8.07;;
46198;SDS011;31928;52.104;10.030;2022-11-27T00:08:46;11.90;;;10.70;;
46198;SDS011;31928;52.104;10.030;2022-11-27T00:11:15;10.02;;;8.98;;
46198;SDS011;31928;52.104;10.030;2022-11-27T00:13:45;11.65;;;8.95;;
46198;SDS011;31928;52.104;10.030;2022-11-27T00:16:13;9.82;;;8.80;;
46198;SDS011;31928;52.104;10.030;2022-11-27T00:18:40;9.10;;;8.13;;
46198;SDS011;31928;52.104;10.030;2022-11-27T00:21:09;11.02;;;9.27;;
46198;SDS011;31928;52.104;10.030;2022-11-27T00:23:37;8.95;;;8.05;;
46198;SDS011;31928;52.104;10.030;2022-11-27T00:26:03;8.52;;;7.70;;
46198;SDS011;31928;52.104;10.030;2022-11-27T00:31:00;7.13;;;6.43;;
46198;SDS011;31928;52.104;10.030;2022-11-27T00:33:31;7.40;;;6.80;;
46198;SDS011;31928;52.104;10.030;2022-11-27T00:36:02;8.52;;;7.68;;
46198;SDS011;31928;52.104;10.030;2022-11-27T00:38:29;7.65;;;6.95;;
46198;SDS011;31928;52.104;10.030;2022-11-27T00:41:04;7.50;;;6.82;;
46198;SDS011;31928;52.104;10.030;2022-11-27T00:43:32;9.25;;;8.35;;
46198;SDS011;31928;52.104;10.030;2022-11-27T00:46:09;9.07;;;8.27;;
46198;SDS011;31928;52.104;10.030;2022-11-27T00:48:36;8.55;;;7.75;;
46198;SDS011;31928;52.104;10.030;2022-11-27T00:51:03;8.60;;;7.90;;
46198;SDS011;31928;52.104;10.030;2022-11-27T00:53:31;8.88;;;8.10;;
46198;SDS011;31928;52.104;10.030;2022-11-27T00:58:24;9.30;;;8.18;;
46198;SDS011;31928;52.104;10.030;2022-11-27T01:00:59;10.60;;;9.50;;
46198;SDS011;31928;52.104;10.030;2022-11-27T01:03:27;8.27;;;7.47;;
46198;SDS011;31928;52.104;10.030;2022-11-27T01:05:54;10.60;;;8.93;;
46198;SDS011;31928;52.104;10.030;2022-11-27T01:08:21;9.60;;;8.55;;
46198;SDS011;31928;52.104;10.030;2022-11-27T01:10:49;9.05;;;8.02;;
46198;SDS011;31928;52.104;10.030;2022-11-27T01:13:26;9.45;;;8.07;;
46198;SDS011;31928;52.104;10.030;2022-11-27T01:16:02;8.77;;;7.88;;
46198;SDS011;31928;52.104;10.030;2022-11-27T01:18:32;8.82;;;8.05;;
46198;SDS011;31928;52.104;10.030;2022-11-27T01:21:00;9.75;;;8.73;;
46198;SDS011;31928;52.104;10.030;2022-11-27T01:23:27;9.18;;;7.88;;
46198;SDS011;31928;52.104;10.030;2022-11-27T01:25:54;9.50;;;8.57;;
46198;SDS011;31928;52.104;10.030;2022-11-27T01:28:21;8.63;;;7.75;;
46198;SDS011;31928;52.104;10.030;2022-11-27T01:30:49;8.38;;;7.65;;
46198;SDS011;31928;52.104;10.030;2022-11-27T01:33:16;8.88;;;7.97;;
46198;SDS011;31928;52.104;10.030;2022-11-27T01:35:56;7.60;;;6.90;;
46198;SDS011;31928;52.104;10.030;2022-11-27T01:38:24;8.35;;;7.55;;
46198;SDS011;31928;52.104;10.030;2022-11-27T01:40:55;9.98;;;8.43;;
46198;SDS011;31928;52.104;10.030;2022-11-27T01:43:36;7.85;;;7.05;;
46198;SDS011;31928;52.104;10.030;2022-11-27T01:54:11;7.18;;;6.47;;
46198;SDS011;31928;52.104;10.030;2022-11-27T01:56:39;7.60;;;6.75;;
46198;SDS011;31928;52.104;10.030;2022-11-27T01:59:08;7.28;;;6.57;;
46198;SDS011;31928;52.104;10.030;2022-11-27T02:01:35;6.53;;;6.00;;
46198;SDS011;31928;52.104;10.030;2022-11-27T02:04:02;6.40;;;6.00;;
46198;SDS011;31928;52.104;10.030;2022-11-27T02:06:28;6.65;;;6.15;;
46198;SDS011;31928;52.104;10.030;2022-11-27T02:08:55;6.80;;;6.13;;
46198;SDS011;31928;52.104;10.030;2022-11-27T02:17:27;6.90;;;6.15;;
46198;SDS011;31928;52.104;10.030;2022-11-27T02:23:06;7.03;;;6.32;;
46198;SDS011;31928;52.104;10.030;2022-11-27T02:26:00;6.93;;;6.13;;
46198;SDS011;31928;52.104;10.030;2022-11-27T02:28:40;6.18;;;5.60;;
46198;SDS011;31928;52.104;10.030;2022-11-27T02:34:01;7.07;;;6.38;;
46198;SDS011;31928;52.104;10.030;2022-11-27T02:36:38;7.60;;;6.80;;
46198;SDS011;31928;52.104;10.030;2022-11-27T02:39:10;8.27;;;6.25;;
46198;SDS011;31928;52.104;10.030;2022-11-27T02:41:43;6.30;;;5.75;;
46198;SDS011;31928;52.104;10.030;2022-11-27T02:44:19;6.43;;;5.83;;
46198;SDS011;31928;52.104;10.030;2022-11-27T02:46:47;8.07;;;5.97;;
46198;SDS011;31928;52.104;10.030;2022-11-27T02:49:15;8.25;;;6.75;;
46198;SDS011;31928;52.104;10.030;2022-11-27T02:51:45;8.55;;;6.65;;
46198;SDS011;31928;52.104;10.030;2022-11-27T02:54:18;7.10;;;6.32;;
46198;SDS011;31928;52.104;10.030;2022-11-27T02:56:49;7.35;;;6.75;;
46198;SDS011;31928;52.104;10.030;2022-11-27T02:59:17;7.30;;;6.70;;
46198;SDS011;31928;52.104;10.030;2022-11-27T03:01:48;7.80;;;7.13;;
46198;SDS011;31928;52.104;10.030;2022-11-27T03:04:19;7.97;;;7.18;;
46198;SDS011;31928;52.104;10.030;2022-11-27T03:06:56;7.55;;;6.85;;
46198;SDS011;31928;52.104;10.030;2022-11-27T03:09:28;7.82;;;7.07;;
46198;SDS011;31928;52.104;10.030;2022-11-27T03:12:01;7.30;;;6.70;;
46198;SDS011;31928;52.104;10.030;2022-11-27T03:14:29;8.00;;;7.30;;
46198;SDS011;31928;52.104;10.030;2022-11-27T03:19:42;7.15;;;6.47;;
46198;SDS011;31928;52.104;10.030;2022-11-27T03:22:21;7.55;;;6.85;;
46198;SDS011;31928;52.104;10.030;2022-11-27T03:24:48;8.70;;;7.60;;
46198;SDS011;31928;52.104;10.030;2022-11-27T03:27:17;8.10;;;7.25;;
46198;SDS011;31928;52.104;10.030;2022-11-27T03:29:53;6.90;;;6.30;;
46198;SDS011;31928;52.104;10.030;2022-11-27T03:32:24;12.25;;;8.65;;
46198;SDS011;31928;52.104;10.030;2022-11-27T03:34:51;8.45;;;7.43;;
46198;SDS011;31928;52.104;10.030;2022-11-27T03:37:18;8.35;;;7.75;;
46198;SDS011;31928;52.104;10.030;2022-11-27T03:39:46;9.35;;;8.45;;
46198;SDS011;31928;52.104;10.030;2022-11-27T03:42:16;7.38;;;6.60;;
46198;SDS011;31928;52.104;10.030;2022-11-27T03:50:16;8.65;;;7.93;;
46198;SDS011;31928;52.104;10.030;2022-11-27T03:55:48;8.38;;;7.43;;
46198;SDS011;31928;52.104;10.030;2022-11-27T03:58:22;7.55;;;6.95;;
46198;SDS011;31928;52.104;10.030;2022-11-27T04:01:09;8.00;;;7.30;;
46198;SDS011;31928;52.104;10.030;2022-11-27T04:03:39;9.77;;;7.63;;
46198;SDS011;31928;52.104;10.030;2022-11-27T04:06:06;7.85;;;7.13;;
46198;SDS011;31928;52.104;10.030;2022-11-27T04:08:32;8.32;;;7.20;;
46198;SDS011;31928;52.104;10.030;2022-11-27T04:10:59;8.00;;;7.32;;
46198;SDS011;31928;52.104;10.030;2022-11-27T04:13:25;8.77;;;8.02;;
46198;SDS011;31928;52.104;10.030;2022-11-27T04:15:52;8.98;;;8.18;;
46198;SDS011;31928;52.104;10.030;2022-11-27T04:18:18;8.27;;;7.45;;
46198;SDS011;31928;52.104;10.030;2022-11-27T04:20:45;7.15;;;6.55;;
46198;SDS011;31928;52.104;10.030;2022-11-27T04:23:11;6.82;;;6.22;;
46198;SDS011;31928;52.104;10.030;2022-11-27T04:25:37;7.05;;;6.45;;
46198;SDS011;31928;52.104;10.030;2022-11-27T04:28:04;6.97;;;6.47;;
46198;SDS011;31928;52.104;10.030;2022-11-27T04:30:30;7.00;;;6.25;;
46198;SDS011;31928;52.104;10.030;2022-11-27T04:32:57;7.97;;;7.10;;
46198;SDS011;31928;52.104;10.030;2022-11-27T04:35:23;7.22;;;6.60;;
46198;SDS011;31928;52.104;10.030;2022-11-27T04:37:50;7.03;;;5.90;;
46198;SDS011;31928;52.104;10.030;2022-11-27T04:40:16;7.22;;;6.63;;
46198;SDS011;31928;52.104;10.030;2022-11-27T04:42:43;6.93;;;6.43;;
46198;SDS011;31928;52.104;10.030;2022-11-27T04:45:10;7.28;;;6.35;;
46198;SDS011;31928;52.104;10.030;2022-11-27T04:47:36;8.10;;;6.68;;
46198;SDS011;31928;52.104;10.030;2022-11-27T04:50:03;8.25;;;7.50;;
46198;SDS011;31928;52.104;10.030;2022-11-27T04:52:30;6.57;;;6.03;;
46198;SDS011;31928;52.104;10.030;2022-11-27T04:54:56;6.72;;;6.13;;
46198;SDS011;31928;52.104;10.030;2022-11-27T04:57:25;7.00;;;6.47;;
46198;SDS011;31928;52.104;10.030;2022-11-27T05:02:18;8.10;;;7.32;;
46198;SDS011;31928;52.104;10.030;2022-11-27T05:04:45;7.65;;;6.90;;
46198;SDS011;31928;52.104;10.030;2022-11-27T05:07:11;7.22;;;6.53;;
46198;SDS011;31928;52.104;10.030;2022-11-27T05:09:38;8.35;;;7.22;;
46198;SDS011;31928;52.104;10.030;2022-11-27T05:12:04;7.55;;;6.63;;
46198;SDS011;31928;52.104;10.030;2022-11-27T05:14:31;9.85;;;8.82;;
46198;SDS011;31928;52.104;10.030;2022-11-27T05:16:58;9.93;;;8.48;;
46198;SDS011;31928;52.104;10.030;2022-11-27T05:19:25;8.85;;;8.05;;
46198;SDS011;31928;52.104;10.030;2022-11-27T05:21:53;8.15;;;7.43;;
46198;SDS011;31928;52.104;10.030;2022-11-27T05:24:21;8.90;;;7.45;;
46198;SDS011;31928;52.104;10.030;2022-11-27T05:26:49;8.45;;;7.45;;
46198;SDS011;31928;52.104;10.030;2022-11-27T05:29:16;8.85;;;7.95;;
46198;SDS011;31928;52.104;10.030;2022-11-27T05:31:43;11.48;;;8.50;;
46198;SDS011;31928;52.104;10.030;2022-11-27T05:36:37;9.30;;;8.05;;
46198;SDS011;31928;52.104;10.030;2022-11-27T05:39:04;8.25;;;7.55;;
46198;SDS011;31928;52.104;10.030;2022-11-27T05:41:33;8.55;;;7.75;;
46198;SDS011;31928;52.104;10.030;2022-11-27T05:44:01;8.88;;;7.68;;
46198;SDS011;31928;52.104;10.030;2022-11-27T05:46:28;8.10;;;6.63;;
46198;SDS011;31928;52.104;10.030;2022-11-27T05:48:55;9.70;;;8.73;;
46198;SDS011;31928;52.104;10.030;2022-11-27T05:51:22;13.80;;;7.78;;
46198;SDS011;31928;52.104;10.030;2022-11-27T05:53:48;8.98;;;7.30;;
46198;SDS011;31928;52.104;10.030;2022-11-27T05:56:15;7.72;;;7.03;;
46198;SDS011;31928;52.104;10.030;2022-11-27T05:58:44;7.93;;;7.32;;
46198;SDS011;31928;52.104;10.030;2022-11-27T06:01:13;7.13;;;6.53;;
46198;SDS011;31928;52.104;10.030;2022-11-27T06:03:40;9.55;;;7.28;;
46198;SDS011;31928;52.104;10.030;2022-11-27T06:06:08;7.60;;;6.90;;
46198;SDS011;31928;52.104;10.030;2022-11-27T06:08:36;8.27;;;6.25;;
46198;SDS011;31928;52.104;10.030;2022-11-27T06:11:06;8.00;;;7.03;;
46198;SDS011;31928;52.104;10.030;2022-11-27T06:13:34;9.10;;;6.70;;
46198;SDS011;31928;52.104;10.030;2022-11-27T06:16:05;7.32;;;6.63;;
46198;SDS011;31928;52.104;10.030;2022-11-27T06:18:33;9.35;;;7.28;;
46198;SDS011;31928;52.104;10.030;2022-11-27T06:21:04;7.97;;;7.18;;
46198;SDS011;31928;52.104;10.030;2022-11-27T06:23:31;9.07;;;8.05;;
46198;SDS011;31928;52.104;10.030;2022-11-27T06:25:57;8.50;;;7.70;;
46198;SDS011;31928;52.104;10.030;2022-11-27T06:28:24;9.02;;;8.23;;
46198;SDS011;31928;52.104;10.030;2022-11-27T06:30:50;7.68;;;6.95;;
46198;SDS011;31928;52.104;10.030;2022-11-27T06:33:17;8.20;;;7.50;;
46198;SDS011;31928;52.104;10.030;2022-11-27T06:35:43;8.15;;;7.45;;
46198;SDS011;31928;52.104;10.030;2022-11-27T06:38:10;7.75;;;7.18;;
46198;SDS011;31928;52.104;10.030;2022-11-27T06:40:36;8.68;;;7.88;;
46198;SDS011;31928;52.104;10.030;2022-11-27T06:43:03;8.93;;;6.65;;
46198;SDS011;31928;52.104;10.030;2022-11-27T06:45:29;7.78;;;7.18;;
46198;SDS011;31928;52.104;10.030;2022-11-27T06:47:56;11.98;;;7.47;;
46198;SDS011;31928;52.104;10.030;2022-11-27T06:50:23;8.43;;;7.72;;
46198;SDS011;31928;52.104;10.030;2022-11-27T06:52:50;8.20;;;7.53;;
46198;SDS011;31928;52.104;10.030;2022-11-27T06:55:16;7.88;;;7.10;;
46198;SDS011;31928;52.104;10.030;2022-11-27T06:57:43;8.18;;;7.05;;
46198;SDS011;31928;52.104;10.030;2022-11-27T07:00:09;9.98;;;7.22;;
46198;SDS011;31928;52.104;10.030;2022-11-27T07:02:36;7.50;;;6.75;;
46198;SDS011;31928;52.104;10.030;2022-11-27T07:05:03;7.38;;;6.72;;
46198;SDS011;31928;52.104;10.030;2022-11-27T07:09:56;7.55;;;6.75;;
46198;SDS011;31928;52.104;10.030;2022-11-27T07:12:22;7.97;;;7.07;;
46198;SDS011;31928;52.104;10.030;2022-11-27T07:14:49;7.82;;;6.85;;
46198;SDS011;31928;52.104;10.030;2022-11-27T07:17:15;8.38;;;7.60;;
46198;SDS011;31928;52.104;10.030;2022-11-27T07:19:41;8.02;;;7.32;;
46198;SDS011;31928;52.104;10.030;2022-11-27T07:22:08;8.27;;;7.47;;
46198;SDS011;31928;52.104;10.030;2022-11-27T07:24:34;8.75;;;7.32;;
46198;SDS011;31928;52.104;10.030;2022-11-27T07:27:01;8.77;;;7.93;;
46198;SDS011;31928;52.104;10.030;2022-11-27T07:29:27;8.43;;;7.63;;
46198;SDS011;31928;52.104;10.030;2022-11-27T07:31:54;9.25;;;8.00;;
46198;SDS011;31928;52.104;10.030;2022-11-27T07:34:20;9.05;;;8.18;;
46198;SDS011;31928;52.104;10.030;2022-11-27T07:36:47;7.43;;;6.82;;
46198;SDS011;31928;52.104;10.030;2022-11-27T07:39:14;9.73;;;8.73;;
46198;SDS011;31928;52.104;10.030;2022-11-27T07:41:53;7.88;;;7.28;;
46198;SDS011;31928;52.104;10.030;2022-11-27T07:44:25;8.25;;;7.53;;
46198;SDS011;31928;52.104;10.030;2022-11-27T07:46:51;9.15;;;8.35;;
46198;SDS011;31928;52.104;10.030;2022-11-27T07:49:17;9.05;;;8.25;;
46198;SDS011;31928;52.104;10.030;2022-11-27T07:51:44;8.82;;;7.90;;
46198;SDS011;31928;52.104;10.030;2022-11-27T07:54:10;9.20;;;8.38;;
46198;SDS011;31928;52.104;10.030;2022-11-27T07:56:37;9.25;;;8.38;;
46198;SDS011;31928;52.104;10.030;2022-11-27T07:59:03;13.05;;;11.18;;
46198;SDS011;31928;52.104;10.030;2022-11-27T08:01:30;17.75;;;15.07;;
46198;SDS011;31928;52.104;10.030;2022-11-27T08:03:56;12.68;;;11.48;;
46198;SDS011;31928;52.104;10.030;2022-11-27T08:06:24;11.65;;;10.20;;
46198;SDS011;31928;52.104;10.030;2022-11-27T08:08:53;9.77;;;8.88;;
46198;SDS011;31928;52.104;10.030;2022-11-27T08:11:23;9.52;;;8.43;;
46198;SDS011;31928;52.104;10.030;2022-11-27T08:13:55;8.98;;;8.00;;
46198;SDS011;31928;52.104;10.030;2022-11-27T08:16:26;9.13;;;7.60;;
46198;SDS011;31928;52.104;10.030;2022-11-27T08:18:53;9.85;;;8.02;;
46198;SDS011;31928;52.104;10.030;2022-11-27T08:21:19;9.43;;;8.55;;
46198;SDS011;31928;52.104;10.030;2022-11-27T08:26:13;8.55;;;7.75;;
46198;SDS011;31928;52.104;10.030;2022-11-27T08:28:40;10.35;;;9.02;;
46198;SDS011;31928;52.104;10.030;2022-11-27T08:33:34;8.63;;;7.70;;
46198;SDS011;31928;52.104;10.030;2022-11-27T08:36:02;9.40;;;8.50;;
46198;SDS011;31928;52.104;10.030;2022-11-27T08:38:29;8.15;;;7.45;;
46198;SDS011;31928;52.104;10.030;2022-11-27T08:40:59;10.02;;;9.13;;
46198;SDS011;31928;52.104;10.030;2022-11-27T08:43:27;10.57;;;9.38;;
46198;SDS011;31928;52.104;10.030;2022-11-27T08:45:54;9.15;;;8.25;;
46198;SDS011;31928;52.104;10.030;2022-11-27T08:48:22;9.52;;;7.75;;
46198;SDS011;31928;52.104;10.030;2022-11-27T08:50:49;11.45;;;10.45;;
46198;SDS011;31928;52.104;10.030;2022-11-27T08:53:16;11.80;;;8.95;;
46198;SDS011;31928;52.104;10.030;2022-11-27T08:55:43;9.40;;;8.57;;
46198;SDS011;31928;52.104;10.030;2022-11-27T08:58:10;9.45;;;8.55;;
46198;SDS011;31928;52.104;10.030;2022-11-27T09:03:04;9.50;;;8.65;;
46198;SDS011;31928;52.104;10.030;2022-11-27T09:05:31;8.50;;;7.75;;
46198;SDS011;31928;52.104;10.030;2022-11-27T09:07:58;8.52;;;7.72;;
46198;SDS011;31928;52.104;10.030;2022-11-27T09:10:27;8.52;;;7.57;;
46198;SDS011;31928;52.104;10.030;2022-11-27T09:12:54;8.52;;;7.38;;
46198;SDS011;31928;52.104;10.030;2022-11-27T09:15:21;8.73;;;7.28;;
46198;SDS011;31928;52.104;10.030;2022-11-27T09:20:14;8.00;;;7.18;;
46198;SDS011;31928;52.104;10.030;2022-11-27T09:22:41;8.80;;;7.50;;
46198;SDS011;31928;52.104;10.030;2022-11-27T09:25:07;8.68;;;7.68;;
46198;SDS011;31928;52.104;10.030;2022-11-27T09:27:35;8.85;;;7.75;;
46198;SDS011;31928;52.104;10.030;2022-11-27T09:30:03;8.85;;;7.93;;
46198;SDS011;31928;52.104;10.030;2022-11-27T09:32:31;8.57;;;7.78;;
46198;SDS011;31928;52.104;10.030;2022-11-27T09:34:57;7.75;;;7.07;;
46198;SDS011;31928;52.104;10.030;2022-11-27T09:37:24;8.85;;;7.95;;
46198;SDS011;31928;52.104;10.030;2022-11-27T09:39:50;9.38;;;8.23;;
46198;SDS011;31928;52.104;10.030;2022-11-27T09:42:26;8.57;;;7.03;;
46198;SDS011;31928;52.104;10.030;2022-11-27T09:45:10;8.82;;;7.90;;
46198;SDS011;31928;52.104;10.030;2022-11-27T09:47:43;10.45;;;8.95;;
46198;SDS011;31928;52.104;10.030;2022-11-27T09:50:19;8.75;;;7.88;;
46198;SDS011;31928;52.104;10.030;2022-11-27T09:53:15;8.52;;;7.60;;
46198;SDS011;31928;52.104;10.030;2022-11-27T09:55:50;8.25;;;7.50;;
46198;SDS011;31928;52.104;10.030;2022-11-27T09:58:39;10.00;;;9.23;;
46198;SDS011;31928;52.104;10.030;2022-11-27T10:01:11;7.70;;;6.90;;
46198;SDS011;31928;52.104;10.030;2022-11-27T10:03:40;7.55;;;6.75;;
46198;SDS011;31928;52.104;10.030;2022-11-27T10:06:19;8.00;;;7.10;;
46198;SDS011;31928;52.104;10.030;2022-11-27T10:08:59;7.68;;;6.75;;
46198;SDS011;31928;52.104;10.030;2022-11-27T10:11:29;7.43;;;6.70;;
46198;SDS011;31928;52.104;10.030;2022-11-27T10:19:18;6.50;;;5.90;;
46198;SDS011;31928;52.104;10.030;2022-11-27T10:21:58;8.20;;;7.00;;
46198;SDS011;31928;52.104;10.030;2022-11-27T10:24:40;10.32;;;7.90;;
46198;SDS011;31928;52.104;10.030;2022-11-27T10:27:17;7.95;;;7.25;;
46198;SDS011;31928;52.104;10.030;2022-11-27T10:29:49;7.63;;;6.93;;
46198;SDS011;31928;52.104;10.030;2022-11-27T10:32:19;6.10;;;5.53;;
46198;SDS011;31928;52.104;10.030;2022-11-27T10:35:11;6.32;;;5.72;;
46198;SDS011;31928;52.104;10.030;2022-11-27T10:45:38;7.13;;;6.45;;
46198;SDS011;31928;52.104;10.030;2022-11-27T10:48:10;6.78;;;5.70;;
46198;SDS011;31928;52.104;10.030;2022-11-27T10:50:38;7.22;;;6.45;;
46198;SDS011;31928;52.104;10.030;2022-11-27T10:56:12;6.75;;;6.00;;
46198;SDS011;31928;52.104;10.030;2022-11-27T10:59:01;7.32;;;6.55;;
46198;SDS011;31928;52.104;10.030;2022-11-27T11:01:42;8.40;;;7.57;;
46198;SDS011;31928;52.104;10.030;2022-11-27T11:04:14;14.00;;;12.38;;
46198;SDS011;31928;52.104;10.030;2022-11-27T11:07:14;9.63;;;8.55;;
46198;SDS011;31928;52.104;10.030;2022-11-27T11:09:54;9.00;;;8.07;;
46198;SDS011;31928;52.104;10.030;2022-11-27T11:12:22;12.35;;;9.77;;
46198;SDS011;31928;52.104;10.030;2022-11-27T11:14:52;7.50;;;6.80;;
46198;SDS011;31928;52.104;10.030;2022-11-27T11:17:38;8.82;;;7.68;;
46198;SDS011;31928;52.104;10.030;2022-11-27T11:20:42;6.50;;;5.88;;
46198;SDS011;31928;52.104;10.030;2022-11-27T11:22:58;6.72;;;6.00;;
46198;SDS011;31928;52.104;10.030;2022-11-27T11:25:25;5.85;;;5.35;;
46198;SDS011;31928;52.104;10.030;2022-11-27T11:27:51;6.88;;;6.18;;
46198;SDS011;31928;52.104;10.030;2022-11-27T11:30:22;6.07;;;5.50;;
46198;SDS011;31928;52.104;10.030;2022-11-27T11:32:57;5.40;;;5.00;;
46198;SDS011;31928;52.104;10.030;2022-11-27T11:37:55;10.88;;;7.07;;
46198;SDS011;31928;52.104;10.030;2022-11-27T11:40:26;7.32;;;6.45;;
46198;SDS011;31928;52.104;10.030;2022-11-27T11:42:57;8.18;;;6.20;;
46198;SDS011;31928;52.104;10.030;2022-11-27T11:45:28;6.65;;;6.03;;
46198;SDS011;31928;52.104;10.030;2022-11-27T11:48:02;5.53;;;5.00;;
46198;SDS011;31928;52.104;10.030;2022-11-27T11:51:03;6.28;;;5.68;;
46198;SDS011;31928;52.104;10.030;2022-11-27T11:53:34;5.35;;;4.95;;
46198;SDS011;31928;52.104;10.030;2022-11-27T11:56:19;8.02;;;7.30;;
46198;SDS011;31928;52.104;10.030;2022-11-27T12:12:29;5.47;;;5.15;;
46198;SDS011;31928;52.104;10.030;2022-11-27T12:15:02;5.97;;;5.18;;
46198;SDS011;31928;52.104;10.030;2022-11-27T12:20:40;5.78;;;5.25;;
46198;SDS011;31928;52.104;10.030;2022-11-27T12:23:43;5.35;;;4.95;;
46198;SDS011;31928;52.104;10.030;2022-11-27T12:26:19;5.45;;;5.05;;
46198;SDS011;31928;52.104;10.030;2022-11-27T12:34:47;12.15;;;11.07;;
46198;SDS011;31928;52.104;10.030;2022-11-27T12:43:22;6.38;;;5.75;;
46198;SDS011;31928;52.104;10.030;2022-11-27T12:51:03;6.38;;;5.63;;
46198;SDS011;31928;52.104;10.030;2022-11-27T13:02:04;6.45;;;5.85;;
46198;SDS011;31928;52.104;10.030;2022-11-27T13:04:51;7.82;;;6.93;;
46198;SDS011;31928;52.104;10.030;2022-11-27T13:07:32;6.30;;;5.70;;
46198;SDS011;31928;52.104;10.030;2022-11-27T13:13:16;9.50;;;8.80;;
46198;SDS011;31928;52.104;10.030;2022-11-27T13:15:53;7.25;;;6.63;;
46198;SDS011;31928;52.104;10.030;2022-11-27T13:18:29;6.00;;;5.50;;
46198;SDS011;31928;52.104;10.030;2022-11-27T13:21:06;8.50;;;7.80;;
46198;SDS011;31928;52.104;10.030;2022-11-27T13:23:37;5.75;;;5.30;;
46198;SDS011;31928;52.104;10.030;2022-11-27T13:31:07;4.88;;;4.53;;
46198;SDS011;31928;52.104;10.030;2022-11-27T13:33:40;5.60;;;5.20;;
46198;SDS011;31928;52.104;10.030;2022-11-27T13:36:18;5.63;;;5.13;;
46198;SDS011;31928;52.104;10.030;2022-11-27T13:38:55;5.32;;;4.88;;
46198;SDS011;31928;52.104;10.030;2022-11-27T13:41:42;6.25;;;5.75;;
46198;SDS011;31928;52.104;10.030;2022-11-27T13:44:20;7.38;;;6.57;;
46198;SDS011;31928;52.104;10.030;2022-11-27T13:46:50;6.28;;;5.80;;
46198;SDS011;31928;52.104;10.030;2022-11-27T13:49:22;7.40;;;5.82;;
46198;SDS011;31928;52.104;10.030;2022-11-27T13:52:02;5.10;;;4.70;;
46198;SDS011;31928;52.104;10.030;2022-11-27T13:54:30;5.35;;;4.82;;
46198;SDS011;31928;52.104;10.030;2022-11-27T13:59:34;5.53;;;5.03;;
46198;SDS011;31928;52.104;10.030;2022-11-27T14:02:05;5.13;;;4.82;;
46198;SDS011;31928;52.104;10.030;2022-11-27T14:04:33;6.43;;;5.88;;
46198;SDS011;31928;52.104;10.030;2022-11-27T14:07:01;5.88;;;5.28;;
46198;SDS011;31928;52.104;10.030;2022-11-27T14:09:34;5.82;;;5.28;;
46198;SDS011;31928;52.104;10.030;2022-11-27T14:15:00;5.85;;;5.45;;
46198;SDS011;31928;52.104;10.030;2022-11-27T14:17:46;6.03;;;5.53;;
46198;SDS011;31928;52.104;10.030;2022-11-27T14:25:32;5.60;;;5.20;;
46198;SDS011;31928;52.104;10.030;2022-11-27T14:30:53;6.68;;;6.03;;
46198;SDS011;31928;52.104;10.030;2022-11-27T14:33:26;5.40;;;5.00;;
46198;SDS011;31928;52.104;10.030;2022-11-27T14:35:54;5.05;;;4.65;;
46198;SDS011;31928;52.104;10.030;2022-11-27T14:38:24;5.53;;;5.03;;
46198;SDS011;31928;52.104;10.030;2022-11-27T14:40:53;5.63;;;5.13;;
46198;SDS011;31928;52.104;10.030;2022-11-27T14:43:21;6.53;;;5.95;;
46198;SDS011;31928;52.104;10.030;2022-11-27T14:45:50;7.80;;;7.15;;
46198;SDS011;31928;52.104;10.030;2022-11-27T14:48:28;7.68;;;6.95;;
46198;SDS011;31928;52.104;10.030;2022-11-27T14:51:07;6.82;;;5.28;;
46198;SDS011;31928;52.104;10.030;2022-11-27T14:53:40;5.65;;;5.00;;
46198;SDS011;31928;52.104;10.030;2022-11-27T14:56:07;5.68;;;5.18;;
46198;SDS011;31928;52.104;10.030;2022-11-27T14:58:34;4.53;;;4.10;;
46198;SDS011;31928;52.104;10.030;2022-11-27T15:01:04;4.88;;;4.47;;
46198;SDS011;31928;52.104;10.030;2022-11-27T15:03:32;4.88;;;4.57;;
46198;SDS011;31928;52.104;10.030;2022-11-27T15:06:00;5.25;;;4.85;;
46198;SDS011;31928;52.104;10.030;2022-11-27T15:08:31;5.30;;;4.80;;
46198;SDS011;31928;52.104;10.030;2022-11-27T15:11:01;4.47;;;4.28;;
46198;SDS011;31928;52.104;10.030;2022-11-27T15:13:33;5.45;;;4.88;;
46198;SDS011;31928;52.104;10.030;2022-11-27T15:16:03;4.82;;;4.43;;
46198;SDS011;31928;52.104;10.030;2022-11-27T15:18:33;4.68;;;4.38;;
46198;SDS011;31928;52.104;10.030;2022-11-27T15:21:02;5.63;;;5.22;;
46198;SDS011;31928;52.104;10.030;2022-11-27T15:23:43;5.32;;;4.97;;
46198;SDS011;31928;52.104;10.030;2022-11-27T15:26:12;5.25;;;4.75;;
46198;SDS011;31928;52.104;10.030;2022-11-27T15:28:51;4.40;;;4.10;;
46198;SDS011;31928;52.104;10.030;2022-11-27T15:31:33;4.82;;;4.47;;
46198;SDS011;31928;52.104;10.030;2022-11-27T15:34:19;4.63;;;4.22;;
46198;SDS011;31928;52.104;10.030;2022-11-27T15:42:10;4.40;;;4.10;;
46198;SDS011;31928;52.104;10.030;2022-11-27T15:47:17;4.65;;;4.32;;
46198;SDS011;31928;52.104;10.030;2022-11-27T15:49:55;4.65;;;4.35;;
46198;SDS011;31928;52.104;10.030;2022-11-27T15:52:22;6.82;;;6.32;;
46198;SDS011;31928;52.104;10.030;2022-11-27T15:54:49;4.95;;;4.65;;
46198;SDS011;31928;52.104;10.030;2022-11-27T15:57:16;4.88;;;4.47;;
46198;SDS011;31928;52.104;10.030;2022-11-27T15:59:43;4.53;;;4.13;;
46198;SDS011;31928;52.104;10.030;2022-11-27T16:02:10;4.90;;;4.55;;
46198;SDS011;31928;52.104;10.030;2022-11-27T16:04:43;5.22;;;4.82;;
46198;SDS011;31928;52.104;10.030;2022-11-27T16:07:09;4.93;;;4.60;;
46198;SDS011;31928;52.104;10.030;2022-11-27T16:09:36;5.88;;;5.38;;
46198;SDS011;31928;52.104;10.030;2022-11-27T16:12:04;4.82;;;4.43;;
46198;SDS011;31928;52.104;10.030;2022-11-27T16:14:31;6.65;;;6.05;;
46198;SDS011;31928;52.104;10.030;2022-11-27T16:21:53;4.45;;;4.15;;
46198;SDS011;31928;52.104;10.030;2022-11-27T16:24:19;5.10;;;4.60;;
46198;SDS011;31928;52.104;10.030;2022-11-27T16:26:46;4.88;;;4.53;;
46198;SDS011;31928;52.104;10.030;2022-11-27T16:29:12;4.63;;;4.32;;
46198;SDS011;31928;52.104;10.030;2022-11-27T16:31:39;6.93;;;5.03;;
46198;SDS011;31928;52.104;10.030;2022-11-27T16:34:06;5.20;;;4.80;;
46198;SDS011;31928;52.104;10.030;2022-11-27T16:36:32;4.93;;;4.53;;
46198;SDS011;31928;52.104;10.030;2022-11-27T16:38:59;5.30;;;4.82;;
46198;SDS011;31928;52.104;10.030;2022-11-27T16:41:26;5.30;;;4.95;;
46198;SDS011;31928;52.104;10.030;2022-11-27T16:43:53;4.30;;;4.00;;
46198;SDS011;31928;52.104;10.030;2022-11-27T16:46:26;6.53;;;5.85;;
46198;SDS011;31928;52.104;10.030;2022-11-27T16:48:55;4.93;;;4.63;;
46198;SDS011;31928;52.104;10.030;2022-11-27T16:51:25;3.90;;;3.67;;
46198;SDS011;31928;52.104;10.030;2022-11-27T16:53:57;4.20;;;3.90;;
46198;SDS011;31928;52.104;10.030;2022-11-27T16:56:26;4.82;;;4.43;;
46198;SDS011;31928;52.104;10.030;2022-11-27T16:58:53;4.57;;;4.18;;
46198;SDS011;31928;52.104;10.030;2022-11-27T17:01:29;5.45;;;4.95;;
46198;SDS011;31928;52.104;10.030;2022-11-27T17:03:57;5.00;;;4.70;;
46198;SDS011;31928;52.104;10.030;2022-11-27T17:06:26;5.55;;;5.05;;
46198;SDS011;31928;52.104;10.030;2022-11-27T17:08:55;4.68;;;4.38;;
46198;SDS011;31928;52.104;10.030;2022-11-27T17:11:24;9.95;;;9.07;;
46198;SDS011;31928;52.104;10.030;2022-11-27T17:13:57;5.57;;;4.97;;
46198;SDS011;31928;52.104;10.030;2022-11-27T17:16:24;7.22;;;6.50;;
46198;SDS011;31928;52.104;10.030;2022-11-27T17:18:51;6.50;;;5.00;;
46198;SDS011;31928;52.104;10.030;2022-11-27T17:21:19;4.63;;;4.22;;